Time;durP1;ratioP1;P1;durP2;ratioP2;P2;SDS_P1;SDS_P2;PMS_P1;PMS_P2;Temp;Humidity;BMP_temperature;BMP_pressure;BME280_temperature;BME280_humidity;BME280_pressure;Samples;Min_cycle;Max_cycle;Signal;HPM_P1;HPM_P2
2020/12/03 00:00:21;;;;;;;;;;;14.20;84.00;;;;;;2082748;28;710;-59
2020/12/03 00:01:40;;;;;;;;;;;14.20;84.10;;;;;;2087793;28;1427;-60
2020/12/03 00:03:00;;;;;;;;;;;14.20;84.10;;;;;;2077843;28;747;-61
2020/12/03 00:04:20;;;;;;;;;;;14.20;84.10;;;;;;2083093;28;800;-61
2020/12/03 00:05:39;;;;;;;;;;;14.20;84.20;;;;;;2086084;28;769;-60
2020/12/03 00:06:59;;;;;;;;;;;14.20;84.30;;;;;;2086400;28;729;-61
2020/12/03 00:08:18;;;;;;;;;;;14.20;84.30;;;;;;2078037;28;778;-61
2020/12/03 00:09:37;;;;;;;;;;;14.20;85.10;;;;;;2086601;28;693;-60
2020/12/03 00:11:00;;;;;;;;;;;14.20;85.10;;;;;;2089460;28;710;-60
2020/12/03 00:12:20;;;;;;;;;;;14.20;84.50;;;;;;2089434;28;1373;-60
2020/12/03 00:13:39;;;;;;;;;;;14.20;84.50;;;;;;2089462;28;601;-59
2020/12/03 00:14:58;;;;;;;;;;;14.20;84.60;;;;;;2085547;28;702;-60
2020/12/03 00:16:18;;;;;;;;;;;14.20;84.70;;;;;;2086039;28;1902;-60
2020/12/03 00:17:37;;;;;;;;;;;14.10;84.50;;;;;;2085730;28;732;-59
2020/12/03 00:18:56;;;;;;;;;;;14.10;84.60;;;;;;2085505;28;788;-60
2020/12/03 00:20:16;;;;;;;;;;;14.10;84.60;;;;;;2086196;28;800;-59
2020/12/03 00:21:37;;;;;;;;;;;14.10;84.60;;;;;;2081234;28;1327;-60
2020/12/03 00:22:56;;;;;;;;;;;14.10;85.40;;;;;;2074660;28;780;-60
2020/12/03 00:24:16;;;;;;;;;;;14.10;84.70;;;;;;2086471;28;726;-60
2020/12/03 00:25:35;;;;;;;;;;;14.10;84.70;;;;;;2089398;28;677;-61
2020/12/03 00:26:54;;;;;;;;;;;14.10;84.80;;;;;;2085912;28;745;-61
2020/12/03 00:28:13;;;;;;;;;;;14.10;84.80;;;;;;2077954;28;634;-60
2020/12/03 00:29:33;;;;;;;;;;;14.10;84.80;;;;;;2083048;28;653;-59
2020/12/03 00:30:52;;;;;;;;;;;14.10;84.80;;;;;;2085873;28;764;-60
2020/12/03 00:32:11;;;;;;;;;;;14.10;84.90;;;;;;2086165;28;1392;-59
2020/12/03 00:33:30;;;;;;;;;;;14.00;84.70;;;;;;2089747;28;688;-59
2020/12/03 00:34:50;;;;;;;;;;;14.00;84.90;;;;;;2088319;28;714;-60
2020/12/03 00:36:09;;;;;;;;;;;14.00;85.60;;;;;;2086117;28;1964;-60
2020/12/03 00:37:28;;;;;;;;;;;14.00;85.60;;;;;;2086005;28;722;-59
2020/12/03 00:38:47;;;;;;;;;;;14.00;85.70;;;;;;2089526;28;704;-60
2020/12/03 00:40:07;;;;;;;;;;;14.00;85.80;;;;;;2081040;28;752;-60
2020/12/03 00:41:26;;;;;;;;;;;14.00;85.20;;;;;;2086362;28;692;-58
2020/12/03 00:42:45;;;;;;;;;;;14.00;85.10;;;;;;2089253;28;722;-61
2020/12/03 00:44:04;;;;;;;;;;;14.00;85.20;;;;;;2089840;28;721;-59
2020/12/03 00:45:24;;;;;;;;;;;14.00;85.20;;;;;;2080280;28;760;-60
2020/12/03 00:46:43;;;;;;;;;;;14.00;85.20;;;;;;2082760;28;725;-60
2020/12/03 00:48:02;;;;;;;;;;;14.00;85.20;;;;;;2077803;28;716;-60
2020/12/03 00:49:21;;;;;;;;;;;14.00;85.30;;;;;;2082845;28;831;-61
2020/12/03 00:50:46;;;;;;;;;;;14.00;85.20;;;;;;2078470;28;766;-60
2020/12/03 00:52:05;;;;;;;;;;;14.00;86.00;;;;;;2083549;28;1355;-61
2020/12/03 00:53:25;;;;;;;;;;;14.00;85.30;;;;;;2086018;28;788;-61
2020/12/03 00:54:44;;;;;;;;;;;13.90;85.30;;;;;;2077117;28;737;-61
2020/12/03 00:56:04;;;;;;;;;;;13.90;85.30;;;;;;2074574;28;1969;-59
2020/12/03 00:57:24;;;;;;;;;;;14.00;85.40;;;;;;2085145;28;1338;-60
2020/12/03 00:58:44;;;;;;;;;;;14.00;85.50;;;;;;2077866;28;641;-60
2020/12/03 01:00:04;;;;;;;;;;;13.90;85.40;;;;;;2082963;28;682;-59
2020/12/03 01:01:23;;;;;;;;;;;13.90;85.50;;;;;;2089738;28;737;-60
2020/12/03 01:02:42;;;;;;;;;;;13.90;85.50;;;;;;2088790;28;738;-60
2020/12/03 01:04:02;;;;;;;;;;;13.90;86.20;;;;;;2085923;28;748;-60
2020/12/03 01:05:21;;;;;;;;;;;13.90;86.20;;;;;;2089128;28;702;-60
2020/12/03 01:06:44;;;;;;;;;;;13.90;86.20;;;;;;2089028;28;723;-59
2020/12/03 01:08:03;;;;;;;;;;;13.90;85.60;;;;;;2078064;28;752;-61
2020/12/03 01:09:22;;;;;;;;;;;13.90;85.60;;;;;;2077921;28;731;-60
2020/12/03 03:53:40;;;;;;;;;;;13.30;86.80;;;;;;2074309;28;1951;-61
2020/12/03 03:55:00;;;;;;;;;;;13.30;86.80;;;;;;2081084;28;1605;-60
2020/12/03 03:56:20;;;;;;;;;;;13.20;86.60;;;;;;2084203;28;1918;-61
2020/12/03 03:57:39;;;;;;;;;;;13.30;86.80;;;;;;2084135;28;1500;-60
2020/12/03 03:58:58;;;;;;;;;;;13.30;86.80;;;;;;2086300;28;1363;-60
2020/12/03 04:00:17;;;;;;;;;;;13.20;86.60;;;;;;2088652;28;1381;-60
2020/12/03 04:01:36;;;;;;;;;;;13.20;86.70;;;;;;2089168;28;1334;-60
2020/12/03 04:02:56;;;;;;;;;;;13.20;86.70;;;;;;2077717;28;694;-60
2020/12/03 04:04:15;;;;;;;;;;;13.20;87.30;;;;;;2081777;28;1005;-60
2020/12/03 04:05:34;;;;;;;;;;;13.20;86.60;;;;;;2088821;28;757;-60
2020/12/03 04:06:53;;;;;;;;;;;13.20;86.60;;;;;;2094615;28;649;-61
2020/12/03 04:08:14;;;;;;;;;;;13.20;86.60;;;;;;2094228;28;693;-59
2020/12/03 04:09:33;;;;;;;;;;;13.20;86.60;;;;;;2094472;28;727;-61
2020/12/03 04:10:52;;;;;;;;;;;13.20;86.60;;;;;;2097719;28;716;-60
2020/12/03 04:12:11;;;;;;;;;;;13.20;86.60;;;;;;2097470;28;1360;-59
2020/12/03 04:13:30;;;;;;;;;;;13.20;86.60;;;;;;2082302;28;1232;-60
2020/12/03 04:14:50;;;;;;;;;;;13.20;86.60;;;;;;2086139;28;1429;-60
2020/12/03 04:16:10;;;;;;;;;;;13.20;86.60;;;;;;2074694;28;1902;-60
2020/12/03 04:17:29;;;;;;;;;;;13.20;86.70;;;;;;2082996;28;1231;-60
2020/12/03 04:18:48;;;;;;;;;;;13.20;86.60;;;;;;2085956;28;1319;-60
2020/12/03 04:20:07;;;;;;;;;;;13.20;87.40;;;;;;2083945;28;887;-60
2020/12/03 04:21:27;;;;;;;;;;;13.20;87.40;;;;;;2085999;28;1250;-60
2020/12/03 04:22:46;;;;;;;;;;;13.20;86.60;;;;;;2087158;28;2054;-60
2020/12/03 04:24:05;;;;;;;;;;;13.20;86.70;;;;;;2086577;28;867;-60
2020/12/03 04:25:24;;;;;;;;;;;13.20;86.70;;;;;;2088586;28;1011;-60
2020/12/03 04:26:44;;;;;;;;;;;13.20;86.70;;;;;;2089703;28;1116;-60
2020/12/03 04:28:03;;;;;;;;;;;13.20;86.70;;;;;;2074014;28;904;-59
2020/12/03 04:29:22;;;;;;;;;;;13.20;86.70;;;;;;2080531;28;1250;-60
2020/12/03 04:30:41;;;;;;;;;;;13.20;86.60;;;;;;2074487;28;864;-60
2020/12/03 04:32:01;;;;;;;;;;;13.10;86.60;;;;;;2078340;28;1500;-60
2020/12/03 04:33:20;;;;;;;;;;;13.20;86.70;;;;;;2087378;28;950;-60
2020/12/03 04:34:40;;;;;;;;;;;13.10;86.50;;;;;;2077973;28;1132;-60
2020/12/03 04:35:59;;;;;;;;;;;13.10;86.60;;;;;;2082585;28;1302;-60
2020/12/03 04:37:18;;;;;;;;;;;13.20;86.60;;;;;;2069648;28;1564;-59
2020/12/03 04:38:37;;;;;;;;;;;13.10;87.30;;;;;;2079802;28;1186;-60
2020/12/03 04:39:57;;;;;;;;;;;13.10;86.50;;;;;;2085898;28;1359;-60
2020/12/03 04:41:16;;;;;;;;;;;13.10;86.50;;;;;;2089251;28;1161;-60
2020/12/03 04:42:36;;;;;;;;;;;13.10;86.50;;;;;;2083403;28;1072;-60
2020/12/03 04:43:57;;;;;;;;;;;13.10;86.50;;;;;;2085154;28;1265;-60
2020/12/03 04:45:16;;;;;;;;;;;13.10;86.60;;;;;;2075322;28;1235;-59
2020/12/03 04:46:38;;;;;;;;;;;13.10;86.60;;;;;;2082641;28;1265;-60
2020/12/03 04:48:06;;;;;;;;;;;13.10;86.60;;;;;;2085946;28;1410;-60
2020/12/03 04:49:25;;;;;;;;;;;13.10;86.50;;;;;;2087195;28;1214;-60
2020/12/03 04:50:52;;;;;;;;;;;13.10;86.60;;;;;;2086140;28;1092;-60
2020/12/03 04:52:29;;;;;;;;;;;13.10;86.60;;;;;;2084655;28;1515;-60
2020/12/03 04:53:52;;;;;;;;;;;13.10;86.60;;;;;;2088778;28;1314;-60
2020/12/03 04:55:17;;;;;;;;;;;13.10;86.60;;;;;;2070810;28;1099;-60
2020/12/03 04:56:47;;;;;;;;;;;13.10;86.60;;;;;;2081950;28;1967;-60
2020/12/03 04:58:25;;;;;;;;;;;13.10;86.60;;;;;;2086067;28;940;-60
2020/12/03 04:59:50;;;;;;;;;;;13.10;86.60;;;;;;2089767;28;719;-61
2020/12/03 05:01:22;;;;;;;;;;;13.00;86.50;;;;;;2090032;28;715;-60
2020/12/03 05:02:46;;;;;;;;;;;13.00;86.50;;;;;;2089940;28;739;-60
2020/12/03 05:04:11;;;;;;;;;;;13.10;86.60;;;;;;2079696;28;2598;-59
2020/12/03 05:05:39;;;;;;;;;;;13.00;86.50;;;;;;2084708;28;1525;-60
2020/12/03 05:07:05;;;;;;;;;;;13.00;86.50;;;;;;2091091;28;1646;-60
2020/12/03 05:08:28;;;;;;;;;;;13.00;86.00;;;;;;2090770;28;725;-60
2020/12/03 05:10:00;;;;;;;;;;;13.00;85.60;;;;;;2088124;28;703;-59
2020/12/03 05:11:23;;;;;;;;;;;13.00;86.10;;;;;;2082769;28;681;-60
2020/12/03 05:12:43;;;;;;;;;;;13.00;86.10;;;;;;2087975;28;715;-60
2020/12/03 05:14:03;;;;;;;;;;;13.00;86.90;;;;;;2087640;28;558;-60
2020/12/03 05:15:31;;;;;;;;;;;13.00;86.10;;;;;;2086697;28;734;-60
2020/12/03 05:17:03;;;;;;;;;;;13.00;86.10;;;;;;2080350;28;1958;-60
2020/12/03 05:18:41;;;;;;;;;;;13.00;86.10;;;;;;2079696;28;737;-60
2020/12/03 05:20:00;;;;;;;;;;;13.00;86.10;;;;;;2088097;28;753;-60
2020/12/03 05:21:23;;;;;;;;;;;13.00;86.10;;;;;;2090316;28;782;-60
2020/12/03 05:22:42;;;;;;;;;;;13.00;86.00;;;;;;2081717;28;732;-60
2020/12/03 05:24:02;;;;;;;;;;;13.00;86.10;;;;;;2081065;28;1343;-60
2020/12/03 05:25:22;;;;;;;;;;;13.00;86.10;;;;;;2089150;28;1115;-60
2020/12/03 05:26:41;;;;;;;;;;;13.00;86.10;;;;;;2089757;28;748;-60
2020/12/03 05:28:23;;;;;;;;;;;13.00;86.10;;;;;;2085224;28;741;-60
2020/12/03 05:29:43;;;;;;;;;;;13.00;86.10;;;;;;2081755;28;783;-60
2020/12/03 05:31:07;;;;;;;;;;;13.00;86.10;;;;;;2078673;28;745;-60
2020/12/03 05:32:26;;;;;;;;;;;13.00;85.90;;;;;;2078813;28;1498;-59
2020/12/03 05:33:45;;;;;;;;;;;13.00;86.10;;;;;;2085959;28;769;-60
2020/12/03 05:35:04;;;;;;;;;;;13.00;85.90;;;;;;2084257;28;771;-60
2020/12/03 05:36:25;;;;;;;;;;;13.00;85.90;;;;;;2074664;28;1960;-60
2020/12/03 05:37:44;;;;;;;;;;;12.90;86.00;;;;;;2086179;28;1621;-60
2020/12/03 05:39:05;;;;;;;;;;;12.90;85.90;;;;;;2081800;28;736;-59
2020/12/03 05:40:24;;;;;;;;;;;12.90;86.00;;;;;;2083669;28;772;-60
2020/12/03 05:41:45;;;;;;;;;;;12.90;86.00;;;;;;2090054;28;1336;-60
2020/12/03 05:43:04;;;;;;;;;;;13.00;86.10;;;;;;2081648;28;719;-60
2020/12/03 05:44:35;;;;;;;;;;;12.90;86.00;;;;;;2075115;28;757;-60
2020/12/03 05:45:55;;;;;;;;;;;12.90;85.90;;;;;;2086544;28;785;-60
2020/12/03 05:47:23;;;;;;;;;;;12.90;86.10;;;;;;2086674;28;757;-59
2020/12/03 05:48:53;;;;;;;;;;;12.90;86.00;;;;;;2079425;28;757;-59
2020/12/03 05:50:15;;;;;;;;;;;12.90;86.00;;;;;;2078159;28;734;-60
2020/12/03 05:51:35;;;;;;;;;;;12.90;86.90;;;;;;2084277;28;1464;-59
2020/12/03 05:53:01;;;;;;;;;;;12.90;86.30;;;;;;2089942;28;720;-59
2020/12/03 05:54:20;;;;;;;;;;;12.90;86.10;;;;;;2089624;28;897;-58
2020/12/03 05:55:39;;;;;;;;;;;12.90;86.10;;;;;;2077687;28;730;-60
2020/12/03 05:56:58;;;;;;;;;;;12.90;86.20;;;;;;2074799;28;1972;-60
2020/12/03 05:58:28;;;;;;;;;;;12.90;87.10;;;;;;2086798;28;717;-60
2020/12/03 05:59:50;;;;;;;;;;;12.90;86.70;;;;;;2089795;28;731;-62
2020/12/03 06:01:22;;;;;;;;;;;12.90;86.10;;;;;;2078691;28;746;-60
2020/12/03 06:02:41;;;;;;;;;;;12.90;86.00;;;;;;2071666;28;720;-60
2020/12/03 06:04:07;;;;;;;;;;;12.90;86.00;;;;;;2083648;28;669;-59
2020/12/03 06:05:28;;;;;;;;;;;12.90;87.10;;;;;;2088908;28;734;-60
2020/12/03 06:06:57;;;;;;;;;;;12.90;86.00;;;;;;2089819;28;735;-59
2020/12/03 06:08:22;;;;;;;;;;;12.90;86.10;;;;;;2089661;28;724;-59
2020/12/03 06:09:59;;;;;;;;;;;12.90;86.30;;;;;;2081568;28;696;-59
2020/12/03 06:11:19;;;;;;;;;;;12.90;86.10;;;;;;2096991;28;704;-60
2020/12/03 06:12:45;;;;;;;;;;;12.80;86.50;;;;;;2098208;28;729;-60
2020/12/03 06:14:23;;;;;;;;;;;12.90;86.30;;;;;;2089660;28;778;-60
2020/12/03 06:15:56;;;;;;;;;;;12.90;86.30;;;;;;2095897;28;726;-60
2020/12/03 06:17:33;;;;;;;;;;;12.80;86.00;;;;;;2095375;28;712;-60
2020/12/03 06:18:58;;;;;;;;;;;12.80;85.90;;;;;;2098394;28;630;-60
2020/12/03 06:20:40;;;;;;;;;;;12.90;86.20;;;;;;2097881;28;669;-60
2020/12/03 06:22:00;;;;;;;;;;;12.80;86.20;;;;;;2097059;28;1702;-59
2020/12/03 06:23:37;;;;;;;;;;;12.80;86.10;;;;;;2094265;28;723;-59
2020/12/03 06:25:15;;;;;;;;;;;12.80;86.20;;;;;;2096251;28;721;-58
2020/12/03 06:26:43;;;;;;;;;;;12.80;86.00;;;;;;2098266;28;712;-59
2020/12/03 06:28:11;;;;;;;;;;;12.80;86.00;;;;;;2098200;28;708;-61
2020/12/03 06:29:48;;;;;;;;;;;12.90;86.10;;;;;;2089391;28;706;-59
2020/12/03 06:31:07;;;;;;;;;;;12.80;85.90;;;;;;2097585;28;724;-60
2020/12/03 06:32:36;;;;;;;;;;;12.80;86.10;;;;;;2097535;28;1408;-60
2020/12/03 06:33:57;;;;;;;;;;;12.80;86.10;;;;;;2079136;28;723;-58
2020/12/03 06:35:31;;;;;;;;;;;12.80;86.10;;;;;;2085769;28;711;-59
2020/12/03 06:36:54;;;;;;;;;;;12.80;86.60;;;;;;2086801;28;1906;-59
2020/12/03 06:38:16;;;;;;;;;;;12.80;85.80;;;;;;2083983;28;728;-59
2020/12/03 06:39:54;;;;;;;;;;;12.80;86.00;;;;;;2091898;28;736;-59
2020/12/03 06:41:22;;;;;;;;;;;12.80;85.80;;;;;;2097682;28;754;-59
2020/12/03 06:42:49;;;;;;;;;;;12.80;85.90;;;;;;2097816;28;723;-59
2020/12/03 06:44:12;;;;;;;;;;;12.80;86.10;;;;;;2097621;28;724;-59
2020/12/03 06:45:33;;;;;;;;;;;12.80;85.90;;;;;;2094138;28;719;-60
2020/12/03 06:47:11;;;;;;;;;;;12.80;85.90;;;;;;2097856;28;712;-59
2020/12/03 06:48:30;;;;;;;;;;;12.80;86.00;;;;;;2097421;28;686;-58
2020/12/03 06:50:06;;;;;;;;;;;12.80;86.00;;;;;;2094235;28;737;-58
2020/12/03 06:51:43;;;;;;;;;;;12.80;86.80;;;;;;2088186;28;732;-59
2020/12/03 06:53:14;;;;;;;;;;;12.80;86.70;;;;;;2095890;28;735;-60
2020/12/03 06:54:35;;;;;;;;;;;12.80;86.00;;;;;;2095805;28;769;-60
2020/12/03 06:56:13;;;;;;;;;;;12.80;86.00;;;;;;2097886;28;802;-59
2020/12/03 06:57:44;;;;;;;;;;;12.80;85.90;;;;;;2097586;28;718;-59
2020/12/03 06:59:12;;;;;;;;;;;12.70;85.90;;;;;;2079156;28;719;-59
2020/12/03 07:00:43;;;;;;;;;;;12.70;85.90;;;;;;2081445;28;701;-60
2020/12/03 07:02:09;;;;;;;;;;;12.80;86.60;;;;;;2081237;28;1417;-59
2020/12/03 07:03:44;;;;;;;;;;;12.70;85.80;;;;;;2081411;28;713;-60
2020/12/03 07:05:07;;;;;;;;;;;12.70;86.10;;;;;;2071911;28;752;-59
2020/12/03 07:06:35;;;;;;;;;;;12.70;86.00;;;;;;2078383;28;747;-59
2020/12/03 07:08:10;;;;;;;;;;;12.70;86.00;;;;;;2081076;28;678;-58
2020/12/03 07:09:29;;;;;;;;;;;12.70;85.80;;;;;;2081362;28;1067;-60
2020/12/03 07:10:54;;;;;;;;;;;12.70;86.00;;;;;;2072732;28;708;-60
2020/12/03 07:12:32;;;;;;;;;;;12.70;86.10;;;;;;2075878;28;1429;-60
2020/12/03 07:13:54;;;;;;;;;;;12.70;86.10;;;;;;2071781;28;748;-60
2020/12/03 07:15:33;;;;;;;;;;;12.70;86.00;;;;;;2077387;28;723;-59
2020/12/03 07:17:21;;;;;;;;;;;12.70;86.10;;;;;;2072491;28;1975;-60
2020/12/03 07:19:06;;;;;;;;;;;12.70;86.00;;;;;;2072071;28;1239;-59
2020/12/03 07:20:34;;;;;;;;;;;12.70;86.10;;;;;;2077399;28;1232;-59
2020/12/03 07:21:53;;;;;;;;;;;12.70;85.90;;;;;;2088681;28;1365;-58
2020/12/03 07:23:14;;;;;;;;;;;12.70;86.60;;;;;;2089381;28;716;-59
2020/12/03 07:24:34;;;;;;;;;;;12.70;86.00;;;;;;2080489;28;723;-59
2020/12/03 07:25:53;;;;;;;;;;;12.70;85.80;;;;;;2077437;28;760;-60
2020/12/03 07:27:12;;;;;;;;;;;12.70;85.90;;;;;;2085649;28;955;-59
2020/12/03 07:28:35;;;;;;;;;;;12.70;85.80;;;;;;2088842;28;704;-59
2020/12/03 07:29:56;;;;;;;;;;;12.70;85.90;;;;;;2080797;28;716;-60
2020/12/03 07:31:20;;;;;;;;;;;12.70;85.80;;;;;;2082782;28;742;-59
2020/12/03 07:33:15;;;;;;;;;;;12.70;86.50;;;;;;2077991;28;803;-59
2020/12/03 07:34:39;;;;;;;;;;;12.70;85.80;;;;;;2063575;28;794;-59
2020/12/03 07:36:16;;;;;;;;;;;12.70;85.90;;;;;;2055571;28;824;-59
2020/12/03 07:37:40;;;;;;;;;;;12.70;86.00;;;;;;2088227;28;725;-58
2020/12/03 07:38:59;;;;;;;;;;;12.70;85.90;;;;;;2086081;28;736;-60
2020/12/03 07:40:19;;;;;;;;;;;12.70;85.90;;;;;;2077674;28;817;-60
2020/12/03 07:41:46;;;;;;;;;;;12.60;85.80;;;;;;2077028;28;1388;-58
2020/12/03 07:43:13;;;;;;;;;;;12.60;86.00;;;;;;2086682;28;796;-60
2020/12/03 07:44:41;;;;;;;;;;;12.70;86.00;;;;;;2078445;28;710;-59
2020/12/03 07:46:00;;;;;;;;;;;12.70;85.80;;;;;;2084622;28;662;-59
2020/12/03 07:47:19;;;;;;;;;;;12.60;85.90;;;;;;2085505;28;715;-59
2020/12/03 07:48:42;;;;;;;;;;;12.60;86.00;;;;;;2089315;28;745;-59
2020/12/03 07:50:08;;;;;;;;;;;12.60;85.70;;;;;;2088900;28;709;-60
2020/12/03 07:51:27;;;;;;;;;;;12.70;85.90;;;;;;2088777;28;745;-59
2020/12/03 07:52:46;;;;;;;;;;;12.60;85.90;;;;;;2077261;28;737;-59
2020/12/03 07:54:18;;;;;;;;;;;12.60;85.70;;;;;;2085560;28;915;-59
2020/12/03 07:55:37;;;;;;;;;;;12.70;85.90;;;;;;2088485;28;725;-59
2020/12/03 07:56:57;;;;;;;;;;;12.60;85.80;;;;;;2080452;28;1910;-60
2020/12/03 07:58:34;;;;;;;;;;;12.60;85.80;;;;;;2085925;28;709;-58
2020/12/03 07:59:53;;;;;;;;;;;12.60;85.70;;;;;;2088673;28;749;-59
2020/12/03 08:01:15;;;;;;;;;;;12.60;85.70;;;;;;2088482;28;731;-59
2020/12/03 08:02:47;;;;;;;;;;;12.60;85.90;;;;;;2089147;28;697;-59
2020/12/03 08:04:08;;;;;;;;;;;12.60;85.90;;;;;;2080319;28;992;-59
2020/12/03 08:05:40;;;;;;;;;;;12.60;85.80;;;;;;2085380;28;741;-60
2020/12/03 08:07:02;;;;;;;;;;;12.60;85.90;;;;;;2089391;28;697;-59
2020/12/03 08:08:22;;;;;;;;;;;12.60;86.00;;;;;;2089141;28;713;-59
2020/12/03 08:09:42;;;;;;;;;;;12.60;85.70;;;;;;2089070;28;759;-60
2020/12/03 08:11:01;;;;;;;;;;;12.60;85.80;;;;;;2080474;28;770;-59
2020/12/03 08:12:21;;;;;;;;;;;12.60;85.80;;;;;;2077123;28;1363;-58
2020/12/03 08:13:41;;;;;;;;;;;12.60;85.70;;;;;;2065900;28;727;-60
2020/12/03 08:15:01;;;;;;;;;;;12.60;86.60;;;;;;2075510;28;1240;-59
2020/12/03 08:16:33;;;;;;;;;;;12.60;86.50;;;;;;2082384;28;1969;-58
2020/12/03 08:17:52;;;;;;;;;;;12.60;85.70;;;;;;2089110;28;717;-59
2020/12/03 08:19:27;;;;;;;;;;;12.60;86.50;;;;;;2088700;28;746;-59
2020/12/03 08:20:46;;;;;;;;;;;12.60;85.80;;;;;;2072009;28;725;-58
2020/12/03 08:22:25;;;;;;;;;;;12.60;85.80;;;;;;2082437;28;1373;-59
2020/12/03 08:23:51;;;;;;;;;;;12.60;85.70;;;;;;2080471;28;656;-59
2020/12/03 08:25:11;;;;;;;;;;;12.60;85.70;;;;;;2075032;28;727;-60
2020/12/03 08:26:30;;;;;;;;;;;12.60;86.50;;;;;;2082105;28;681;-58
2020/12/03 08:27:51;;;;;;;;;;;12.50;85.80;;;;;;2076964;28;806;-60
2020/12/03 08:29:19;;;;;;;;;;;12.60;85.80;;;;;;2082024;28;774;-59
2020/12/03 08:30:38;;;;;;;;;;;12.60;85.80;;;;;;2078976;28;706;-60
2020/12/03 08:31:57;;;;;;;;;;;12.60;86.60;;;;;;2074388;28;1352;-60
2020/12/03 08:33:24;;;;;;;;;;;12.60;85.90;;;;;;2086309;28;721;-60
2020/12/03 08:34:44;;;;;;;;;;;12.50;85.60;;;;;;2089292;28;714;-61
2020/12/03 08:36:06;;;;;;;;;;;12.60;85.70;;;;;;2089274;28;710;-60
2020/12/03 08:37:25;;;;;;;;;;;12.60;85.80;;;;;;2082955;28;1282;-58
2020/12/03 08:38:46;;;;;;;;;;;12.60;85.80;;;;;;2076341;28;1224;-59
2020/12/03 08:40:06;;;;;;;;;;;12.50;85.70;;;;;;2076459;28;1192;-60
2020/12/03 08:41:27;;;;;;;;;;;12.50;85.80;;;;;;2084139;28;1121;-59
2020/12/03 08:42:47;;;;;;;;;;;12.50;85.70;;;;;;2079739;28;1439;-60
2020/12/03 08:44:07;;;;;;;;;;;12.60;85.80;;;;;;2084677;28;1348;-60
2020/12/03 08:45:26;;;;;;;;;;;12.60;85.90;;;;;;2078609;28;925;-60
2020/12/03 08:46:45;;;;;;;;;;;12.50;85.60;;;;;;2079031;28;1262;-59
2020/12/03 08:48:05;;;;;;;;;;;12.60;85.80;;;;;;2079420;28;726;-59
2020/12/03 08:49:24;;;;;;;;;;;12.50;86.50;;;;;;2087492;28;720;-60
2020/12/03 08:50:43;;;;;;;;;;;12.50;85.70;;;;;;2079445;28;606;-59
2020/12/03 08:52:02;;;;;;;;;;;12.50;85.60;;;;;;2084207;28;1299;-60
2020/12/03 08:53:22;;;;;;;;;;;12.50;85.60;;;;;;2078409;28;728;-60
2020/12/03 08:54:41;;;;;;;;;;;12.50;85.50;;;;;;2084076;28;756;-60
2020/12/03 08:56:26;;;;;;;;;;;12.50;85.70;;;;;;2087561;28;737;-59
2020/12/03 08:57:45;;;;;;;;;;;12.50;85.60;;;;;;2091449;28;696;-60
2020/12/03 08:59:06;;;;;;;;;;;12.50;85.60;;;;;;2082547;28;742;-60
2020/12/03 09:00:26;;;;;;;;;;;12.50;85.80;;;;;;2084716;28;771;-59
2020/12/03 09:01:49;;;;;;;;;;;12.50;85.60;;;;;;2087549;28;1380;-59
2020/12/03 09:03:11;;;;;;;;;;;12.50;85.70;;;;;;2088055;28;745;-61
2020/12/03 09:04:31;;;;;;;;;;;12.50;85.60;;;;;;2088060;28;742;-60
2020/12/03 09:05:50;;;;;;;;;;;12.50;85.70;;;;;;2087323;28;779;-60
2020/12/03 09:07:09;;;;;;;;;;;12.50;85.60;;;;;;2087467;28;689;-60
2020/12/03 09:08:28;;;;;;;;;;;12.50;85.60;;;;;;2079378;28;762;-60
2020/12/03 09:09:48;;;;;;;;;;;12.50;85.80;;;;;;2084371;28;1112;-60
2020/12/03 09:11:07;;;;;;;;;;;12.50;85.90;;;;;;2095092;28;1006;-59
2020/12/03 09:12:28;;;;;;;;;;;12.50;85.60;;;;;;2090531;28;1353;-60
2020/12/03 09:13:47;;;;;;;;;;;12.50;85.80;;;;;;2087492;28;726;-60
2020/12/03 09:15:07;;;;;;;;;;;12.50;85.50;;;;;;2091763;28;661;-60
2020/12/03 09:16:26;;;;;;;;;;;12.50;85.70;;;;;;2087563;28;1914;-60
2020/12/03 09:17:51;;;;;;;;;;;12.50;86.20;;;;;;2083787;28;665;-60
2020/12/03 09:19:10;;;;;;;;;;;12.50;86.30;;;;;;2088356;28;751;-60
2020/12/03 09:20:30;;;;;;;;;;;12.50;85.60;;;;;;2084186;28;724;-60
2020/12/03 09:21:50;;;;;;;;;;;12.50;85.70;;;;;;2095856;28;1455;-59
2020/12/03 09:23:15;;;;;;;;;;;12.50;85.60;;;;;;2090486;28;684;-59
2020/12/03 09:24:34;;;;;;;;;;;12.40;85.50;;;;;;2088145;28;741;-58
2020/12/03 09:25:54;;;;;;;;;;;12.50;85.60;;;;;;2092338;28;765;-60
2020/12/03 09:27:13;;;;;;;;;;;12.40;85.60;;;;;;2095768;28;739;-60
2020/12/03 09:28:33;;;;;;;;;;;12.50;85.70;;;;;;2087534;28;666;-60
2020/12/03 09:29:52;;;;;;;;;;;12.40;85.50;;;;;;2083941;28;696;-60
2020/12/03 09:31:11;;;;;;;;;;;12.40;85.50;;;;;;2084264;28;746;-58
2020/12/03 09:32:31;;;;;;;;;;;12.50;85.70;;;;;;2091083;28;1357;-60
2020/12/03 09:33:50;;;;;;;;;;;12.50;85.50;;;;;;2094833;28;709;-59
2020/12/03 09:35:10;;;;;;;;;;;12.40;85.40;;;;;;2086072;28;749;-62
2020/12/03 09:36:32;;;;;;;;;;;12.40;85.30;;;;;;2079229;28;1910;-60
2020/12/03 09:37:53;;;;;;;;;;;12.50;85.50;;;;;;2091916;28;745;-59
2020/12/03 09:39:13;;;;;;;;;;;12.40;85.70;;;;;;2092566;28;729;-59
2020/12/03 09:40:35;;;;;;;;;;;12.40;85.80;;;;;;2091871;28;779;-59
2020/12/03 09:41:54;;;;;;;;;;;12.40;85.40;;;;;;2090923;28;1361;-57
2020/12/03 09:43:19;;;;;;;;;;;12.40;85.50;;;;;;2074286;28;750;-59
2020/12/03 09:44:39;;;;;;;;;;;12.40;85.50;;;;;;2090169;28;779;-61
2020/12/03 09:45:59;;;;;;;;;;;12.40;85.50;;;;;;2085833;28;769;-57
2020/12/03 09:47:18;;;;;;;;;;;12.40;85.50;;;;;;2087777;28;821;-61
2020/12/03 09:48:38;;;;;;;;;;;12.40;85.30;;;;;;2091227;28;739;-60
2020/12/03 09:49:57;;;;;;;;;;;12.40;85.20;;;;;;2074036;28;766;-59
2020/12/03 09:51:17;;;;;;;;;;;12.40;85.30;;;;;;2089483;28;764;-59
2020/12/03 09:52:36;;;;;;;;;;;12.40;85.40;;;;;;2093489;28;769;-59
2020/12/03 09:53:56;;;;;;;;;;;12.40;85.50;;;;;;2075057;28;1015;-57
2020/12/03 09:55:15;;;;;;;;;;;12.40;86.20;;;;;;2078608;28;761;-61
2020/12/03 09:56:35;;;;;;;;;;;12.40;86.10;;;;;;2078344;28;1914;-59
2020/12/03 09:57:57;;;;;;;;;;;12.40;85.50;;;;;;2081657;28;738;-59
2020/12/03 09:59:19;;;;;;;;;;;12.40;85.30;;;;;;2080782;28;750;-59
2020/12/03 10:00:39;;;;;;;;;;;12.40;85.20;;;;;;2089465;28;908;-60
2020/12/03 10:02:07;;;;;;;;;;;12.40;85.30;;;;;;2090236;28;1440;-60
2020/12/03 10:03:28;;;;;;;;;;;12.40;85.30;;;;;;2085008;28;779;-60
2020/12/03 10:05:00;;;;;;;;;;;12.40;85.20;;;;;;2080627;28;750;-60
2020/12/03 10:06:39;;;;;;;;;;;12.40;85.30;;;;;;2092180;28;815;-60
2020/12/03 10:08:16;;;;;;;;;;;12.40;85.50;;;;;;2083983;28;765;-59
2020/12/03 10:09:54;;;;;;;;;;;12.40;85.30;;;;;;2088119;28;1272;-60
2020/12/03 10:11:13;;;;;;;;;;;12.40;86.00;;;;;;2099053;28;629;-59
2020/12/03 10:12:34;;;;;;;;;;;12.40;85.30;;;;;;2099012;28;1323;-60
2020/12/03 10:14:06;;;;;;;;;;;12.40;85.30;;;;;;2090122;28;739;-60
2020/12/03 10:15:44;;;;;;;;;;;12.40;85.30;;;;;;2095704;28;737;-60
2020/12/03 10:17:04;;;;;;;;;;;12.40;85.30;;;;;;2098429;28;1910;-59
2020/12/03 10:18:24;;;;;;;;;;;12.40;85.20;;;;;;2087117;28;690;-60
2020/12/03 10:19:43;;;;;;;;;;;12.40;85.10;;;;;;2083648;28;762;-61
2020/12/03 10:21:02;;;;;;;;;;;12.40;85.30;;;;;;2083979;28;726;-60
2020/12/03 10:22:24;;;;;;;;;;;12.40;85.30;;;;;;2092044;28;1346;-61
2020/12/03 10:23:50;;;;;;;;;;;12.40;85.30;;;;;;2086703;28;1442;-59
2020/12/03 10:25:18;;;;;;;;;;;12.30;85.10;;;;;;2089327;28;1052;-57
2020/12/03 10:26:50;;;;;;;;;;;12.30;85.10;;;;;;2082332;28;766;-59
2020/12/03 10:28:12;;;;;;;;;;;12.30;85.20;;;;;;2073256;28;744;-60
2020/12/03 10:29:31;;;;;;;;;;;12.40;85.30;;;;;;2079390;28;711;-60
2020/12/03 10:30:53;;;;;;;;;;;12.30;85.10;;;;;;2073800;28;625;-59
2020/12/03 10:32:12;;;;;;;;;;;12.40;85.30;;;;;;2062583;28;1393;-60
2020/12/03 10:33:35;;;;;;;;;;;12.40;85.30;;;;;;2067255;28;761;-60
2020/12/03 10:34:54;;;;;;;;;;;12.30;86.00;;;;;;2075573;28;739;-60
2020/12/03 10:36:23;;;;;;;;;;;12.40;85.30;;;;;;2081876;28;765;-59
2020/12/03 10:37:53;;;;;;;;;;;12.30;85.10;;;;;;2079985;28;701;-60
2020/12/03 10:39:12;;;;;;;;;;;12.30;85.00;;;;;;2080297;28;633;-58
2020/12/03 10:40:31;;;;;;;;;;;12.30;85.10;;;;;;2081746;28;723;-61
2020/12/03 10:41:52;;;;;;;;;;;12.30;85.80;;;;;;2078630;28;1317;-60
2020/12/03 10:43:12;;;;;;;;;;;12.30;85.30;;;;;;2082175;28;696;-60
2020/12/03 10:44:31;;;;;;;;;;;12.30;85.20;;;;;;2073463;28;723;-59
2020/12/03 10:45:53;;;;;;;;;;;12.30;85.20;;;;;;2075469;28;726;-61
2020/12/03 10:47:13;;;;;;;;;;;12.30;85.20;;;;;;2078464;28;1265;-59
2020/12/03 10:48:34;;;;;;;;;;;12.30;85.30;;;;;;2070609;28;731;-59
2020/12/03 10:49:54;;;;;;;;;;;12.30;85.10;;;;;;2070751;28;733;-60
2020/12/03 10:51:13;;;;;;;;;;;12.30;85.20;;;;;;2073624;28;637;-59
2020/12/03 10:52:32;;;;;;;;;;;12.30;85.10;;;;;;2070164;28;1319;-59
2020/12/03 10:53:53;;;;;;;;;;;12.30;85.80;;;;;;2066905;28;802;-60
2020/12/03 10:55:18;;;;;;;;;;;12.30;85.10;;;;;;2069611;28;737;-60
2020/12/03 10:56:39;;;;;;;;;;;12.30;85.00;;;;;;2079127;28;2028;-57
2020/12/03 10:58:01;;;;;;;;;;;12.30;85.10;;;;;;2081778;28;637;-59